sensor_id;sensor_type;location;lat;lon;timestamp;P1;durP1;ratioP1;P2;durP2;ratioP2
48002;SDS011;33768;48.578;11.574;2023-12-20T00:00:25;12.97;;;7.23;;
48002;SDS011;33768;48.578;11.574;2023-12-20T00:03:30;12.47;;;7.57;;
48002;SDS011;33768;48.578;11.574;2023-12-20T00:06:34;9.83;;;5.73;;
48002;SDS011;33768;48.578;11.574;2023-12-20T00:09:38;6.83;;;3.70;;
48002;SDS011;33768;48.578;11.574;2023-12-20T00:12:42;6.17;;;3.30;;
48002;SDS011;33768;48.578;11.574;2023-12-20T00:15:46;4.57;;;2.67;;
48002;SDS011;33768;48.578;11.574;2023-12-20T00:18:51;4.10;;;2.93;;
48002;SDS011;33768;48.578;11.574;2023-12-20T00:21:56;5.20;;;2.67;;
48002;SDS011;33768;48.578;11.574;2023-12-20T00:25:00;4.10;;;2.30;;
48002;SDS011;33768;48.578;11.574;2023-12-20T00:28:04;3.33;;;2.50;;
48002;SDS011;33768;48.578;11.574;2023-12-20T00:31:10;3.03;;;1.87;;
48002;SDS011;33768;48.578;11.574;2023-12-20T00:34:14;3.80;;;2.10;;
48002;SDS011;33768;48.578;11.574;2023-12-20T00:37:18;3.13;;;2.20;;
48002;SDS011;33768;48.578;11.574;2023-12-20T00:40:23;2.60;;;2.10;;
48002;SDS011;33768;48.578;11.574;2023-12-20T00:43:27;2.30;;;1.83;;
48002;SDS011;33768;48.578;11.574;2023-12-20T00:46:31;2.67;;;2.00;;
48002;SDS011;33768;48.578;11.574;2023-12-20T00:49:35;2.53;;;1.73;;
48002;SDS011;33768;48.578;11.574;2023-12-20T00:52:40;2.73;;;2.13;;
48002;SDS011;33768;48.578;11.574;2023-12-20T00:55:44;2.77;;;2.10;;
48002;SDS011;33768;48.578;11.574;2023-12-20T00:58:49;5.80;;;3.17;;
48002;SDS011;33768;48.578;11.574;2023-12-20T01:01:53;12.87;;;6.70;;
48002;SDS011;33768;48.578;11.574;2023-12-20T01:04:57;16.73;;;8.50;;
48002;SDS011;33768;48.578;11.574;2023-12-20T01:08:02;12.40;;;6.27;;
48002;SDS011;33768;48.578;11.574;2023-12-20T01:11:07;6.47;;;4.80;;
48002;SDS011;33768;48.578;11.574;2023-12-20T01:14:12;5.43;;;3.50;;
48002;SDS011;33768;48.578;11.574;2023-12-20T01:17:16;3.27;;;2.10;;
48002;SDS011;33768;48.578;11.574;2023-12-20T01:20:20;3.97;;;2.13;;
48002;SDS011;33768;48.578;11.574;2023-12-20T01:23:24;2.63;;;2.00;;
48002;SDS011;33768;48.578;11.574;2023-12-20T01:26:29;5.67;;;2.60;;
48002;SDS011;33768;48.578;11.574;2023-12-20T01:29:33;4.13;;;2.37;;
48002;SDS011;33768;48.578;11.574;2023-12-20T01:32:37;5.90;;;3.17;;
48002;SDS011;33768;48.578;11.574;2023-12-20T01:35:42;5.30;;;3.03;;
48002;SDS011;33768;48.578;11.574;2023-12-20T01:38:46;5.53;;;3.10;;
48002;SDS011;33768;48.578;11.574;2023-12-20T01:41:50;6.90;;;3.50;;
48002;SDS011;33768;48.578;11.574;2023-12-20T01:44:54;7.67;;;3.60;;
48002;SDS011;33768;48.578;11.574;2023-12-20T01:47:59;6.40;;;3.20;;
48002;SDS011;33768;48.578;11.574;2023-12-20T01:51:03;5.67;;;2.90;;
48002;SDS011;33768;48.578;11.574;2023-12-20T01:54:08;10.43;;;4.80;;
48002;SDS011;33768;48.578;11.574;2023-12-20T01:57:15;15.50;;;7.80;;
48002;SDS011;33768;48.578;11.574;2023-12-20T02:00:19;26.07;;;11.00;;
48002;SDS011;33768;48.578;11.574;2023-12-20T02:03:27;18.77;;;9.33;;
48002;SDS011;33768;48.578;11.574;2023-12-20T02:06:31;8.73;;;5.07;;
48002;SDS011;33768;48.578;11.574;2023-12-20T02:09:37;3.03;;;2.20;;
48002;SDS011;33768;48.578;11.574;2023-12-20T02:12:43;3.37;;;2.03;;
48002;SDS011;33768;48.578;11.574;2023-12-20T02:15:47;2.73;;;1.97;;
48002;SDS011;33768;48.578;11.574;2023-12-20T02:18:52;2.20;;;1.50;;
48002;SDS011;33768;48.578;11.574;2023-12-20T02:22:06;1.60;;;1.50;;
48002;SDS011;33768;48.578;11.574;2023-12-20T02:25:11;2.17;;;1.50;;
48002;SDS011;33768;48.578;11.574;2023-12-20T02:28:16;2.27;;;1.57;;
48002;SDS011;33768;48.578;11.574;2023-12-20T02:31:21;2.17;;;1.50;;
48002;SDS011;33768;48.578;11.574;2023-12-20T02:34:26;2.17;;;1.50;;
48002;SDS011;33768;48.578;11.574;2023-12-20T02:37:30;1.77;;;1.30;;
48002;SDS011;33768;48.578;11.574;2023-12-20T02:40:34;1.37;;;1.20;;
48002;SDS011;33768;48.578;11.574;2023-12-20T02:43:40;1.83;;;1.50;;
48002;SDS011;33768;48.578;11.574;2023-12-20T02:46:44;1.53;;;1.23;;
48002;SDS011;33768;48.578;11.574;2023-12-20T02:49:48;2.00;;;1.40;;
48002;SDS011;33768;48.578;11.574;2023-12-20T02:52:53;1.93;;;1.33;;
48002;SDS011;33768;48.578;11.574;2023-12-20T02:55:57;1.90;;;1.50;;
48002;SDS011;33768;48.578;11.574;2023-12-20T02:59:01;1.50;;;1.30;;
48002;SDS011;33768;48.578;11.574;2023-12-20T03:02:05;1.60;;;1.40;;
48002;SDS011;33768;48.578;11.574;2023-12-20T03:05:10;2.03;;;1.50;;
48002;SDS011;33768;48.578;11.574;2023-12-20T03:08:14;2.60;;;1.53;;
48002;SDS011;33768;48.578;11.574;2023-12-20T03:11:18;2.23;;;1.57;;
48002;SDS011;33768;48.578;11.574;2023-12-20T03:14:22;1.77;;;1.40;;
48002;SDS011;33768;48.578;11.574;2023-12-20T03:17:26;1.73;;;1.40;;
48002;SDS011;33768;48.578;11.574;2023-12-20T03:20:30;2.10;;;1.73;;
48002;SDS011;33768;48.578;11.574;2023-12-20T03:23:37;1.67;;;1.43;;
48002;SDS011;33768;48.578;11.574;2023-12-20T03:26:42;3.97;;;1.60;;
48002;SDS011;33768;48.578;11.574;2023-12-20T03:29:46;2.40;;;1.57;;
48002;SDS011;33768;48.578;11.574;2023-12-20T03:32:50;2.17;;;1.60;;
48002;SDS011;33768;48.578;11.574;2023-12-20T03:35:54;2.60;;;1.73;;
48002;SDS011;33768;48.578;11.574;2023-12-20T03:38:58;2.10;;;1.50;;
48002;SDS011;33768;48.578;11.574;2023-12-20T03:42:03;2.00;;;1.50;;
48002;SDS011;33768;48.578;11.574;2023-12-20T03:45:07;2.43;;;1.60;;
48002;SDS011;33768;48.578;11.574;2023-12-20T03:48:13;1.77;;;1.47;;
48002;SDS011;33768;48.578;11.574;2023-12-20T03:51:17;2.77;;;1.60;;
48002;SDS011;33768;48.578;11.574;2023-12-20T03:54:21;3.80;;;1.83;;
48002;SDS011;33768;48.578;11.574;2023-12-20T03:57:25;1.70;;;1.50;;
48002;SDS011;33768;48.578;11.574;2023-12-20T04:00:29;1.70;;;1.50;;
48002;SDS011;33768;48.578;11.574;2023-12-20T04:03:34;1.90;;;1.57;;
48002;SDS011;33768;48.578;11.574;2023-12-20T04:06:38;2.17;;;1.50;;
48002;SDS011;33768;48.578;11.574;2023-12-20T04:09:42;2.43;;;1.70;;
48002;SDS011;33768;48.578;11.574;2023-12-20T04:12:46;2.47;;;1.80;;
48002;SDS011;33768;48.578;11.574;2023-12-20T04:15:50;2.57;;;1.70;;
48002;SDS011;33768;48.578;11.574;2023-12-20T04:18:55;2.13;;;1.70;;
48002;SDS011;33768;48.578;11.574;2023-12-20T04:21:59;2.17;;;1.63;;
48002;SDS011;33768;48.578;11.574;2023-12-20T04:25:04;4.87;;;2.00;;
48002;SDS011;33768;48.578;11.574;2023-12-20T04:28:09;2.50;;;2.00;;
48002;SDS011;33768;48.578;11.574;2023-12-20T04:31:13;2.90;;;2.10;;
48002;SDS011;33768;48.578;11.574;2023-12-20T04:34:17;2.80;;;2.20;;
48002;SDS011;33768;48.578;11.574;2023-12-20T04:37:22;5.57;;;2.10;;
48002;SDS011;33768;48.578;11.574;2023-12-20T04:40:26;2.57;;;2.20;;
48002;SDS011;33768;48.578;11.574;2023-12-20T04:43:30;2.97;;;2.37;;
48002;SDS011;33768;48.578;11.574;2023-12-20T04:46:35;2.53;;;2.20;;
48002;SDS011;33768;48.578;11.574;2023-12-20T04:49:39;3.17;;;2.37;;
48002;SDS011;33768;48.578;11.574;2023-12-20T04:52:43;3.90;;;2.27;;
48002;SDS011;33768;48.578;11.574;2023-12-20T04:55:47;5.23;;;2.50;;
48002;SDS011;33768;48.578;11.574;2023-12-20T04:58:52;3.10;;;2.47;;
48002;SDS011;33768;48.578;11.574;2023-12-20T05:01:56;3.03;;;2.23;;
48002;SDS011;33768;48.578;11.574;2023-12-20T05:05:01;3.27;;;2.40;;
48002;SDS011;33768;48.578;11.574;2023-12-20T05:08:05;4.27;;;2.73;;
48002;SDS011;33768;48.578;11.574;2023-12-20T05:11:10;3.07;;;2.53;;
48002;SDS011;33768;48.578;11.574;2023-12-20T05:14:17;3.70;;;2.50;;
48002;SDS011;33768;48.578;11.574;2023-12-20T05:17:21;2.90;;;2.60;;
48002;SDS011;33768;48.578;11.574;2023-12-20T05:20:25;3.27;;;2.47;;
48002;SDS011;33768;48.578;11.574;2023-12-20T05:23:30;2.97;;;2.60;;
48002;SDS011;33768;48.578;11.574;2023-12-20T05:26:34;2.73;;;2.37;;
48002;SDS011;33768;48.578;11.574;2023-12-20T05:29:38;3.50;;;2.33;;
48002;SDS011;33768;48.578;11.574;2023-12-20T05:32:42;2.60;;;2.10;;
48002;SDS011;33768;48.578;11.574;2023-12-20T05:35:48;2.73;;;2.37;;
48002;SDS011;33768;48.578;11.574;2023-12-20T05:38:52;2.47;;;2.07;;
48002;SDS011;33768;48.578;11.574;2023-12-20T05:41:57;2.27;;;1.90;;
48002;SDS011;33768;48.578;11.574;2023-12-20T05:45:01;2.60;;;2.13;;
48002;SDS011;33768;48.578;11.574;2023-12-20T05:48:05;2.70;;;2.10;;
48002;SDS011;33768;48.578;11.574;2023-12-20T05:51:13;4.17;;;2.30;;
48002;SDS011;33768;48.578;11.574;2023-12-20T05:54:17;3.03;;;2.03;;
48002;SDS011;33768;48.578;11.574;2023-12-20T05:57:21;3.30;;;1.97;;
48002;SDS011;33768;48.578;11.574;2023-12-20T06:00:27;2.17;;;1.73;;
48002;SDS011;33768;48.578;11.574;2023-12-20T06:03:31;1.93;;;1.73;;
48002;SDS011;33768;48.578;11.574;2023-12-20T06:06:40;2.87;;;1.77;;
48002;SDS011;33768;48.578;11.574;2023-12-20T06:09:45;1.93;;;1.73;;
48002;SDS011;33768;48.578;11.574;2023-12-20T06:12:50;2.87;;;1.70;;
48002;SDS011;33768;48.578;11.574;2023-12-20T06:15:55;2.77;;;1.53;;
48002;SDS011;33768;48.578;11.574;2023-12-20T06:18:59;2.23;;;1.80;;
48002;SDS011;33768;48.578;11.574;2023-12-20T06:22:03;1.70;;;1.60;;
48002;SDS011;33768;48.578;11.574;2023-12-20T06:25:08;1.80;;;1.60;;
48002;SDS011;33768;48.578;11.574;2023-12-20T06:28:12;2.07;;;1.60;;
48002;SDS011;33768;48.578;11.574;2023-12-20T06:31:18;3.53;;;1.70;;
48002;SDS011;33768;48.578;11.574;2023-12-20T06:34:22;2.33;;;2.13;;
48002;SDS011;33768;48.578;11.574;2023-12-20T06:37:28;2.10;;;1.70;;
48002;SDS011;33768;48.578;11.574;2023-12-20T06:40:32;2.17;;;1.70;;
48002;SDS011;33768;48.578;11.574;2023-12-20T06:43:37;4.77;;;2.00;;
48002;SDS011;33768;48.578;11.574;2023-12-20T06:46:41;2.37;;;1.93;;
48002;SDS011;33768;48.578;11.574;2023-12-20T06:49:45;2.50;;;2.10;;
48002;SDS011;33768;48.578;11.574;2023-12-20T06:52:49;2.43;;;2.00;;
48002;SDS011;33768;48.578;11.574;2023-12-20T06:55:54;4.03;;;1.90;;
48002;SDS011;33768;48.578;11.574;2023-12-20T06:58:59;4.30;;;2.50;;
48002;SDS011;33768;48.578;11.574;2023-12-20T07:02:04;6.87;;;4.10;;
48002;SDS011;33768;48.578;11.574;2023-12-20T07:05:09;4.13;;;3.13;;
48002;SDS011;33768;48.578;11.574;2023-12-20T07:08:14;3.43;;;2.70;;
48002;SDS011;33768;48.578;11.574;2023-12-20T07:11:20;3.27;;;2.87;;
48002;SDS011;33768;48.578;11.574;2023-12-20T07:14:25;3.23;;;2.70;;
48002;SDS011;33768;48.578;11.574;2023-12-20T07:17:29;3.00;;;2.70;;
48002;SDS011;33768;48.578;11.574;2023-12-20T07:20:33;2.90;;;2.50;;
48002;SDS011;33768;48.578;11.574;2023-12-20T07:23:38;12.90;;;8.07;;
48002;SDS011;33768;48.578;11.574;2023-12-20T07:26:42;10.70;;;7.00;;
48002;SDS011;33768;48.578;11.574;2023-12-20T07:29:46;2.60;;;2.40;;
48002;SDS011;33768;48.578;11.574;2023-12-20T07:32:51;3.90;;;3.47;;
48002;SDS011;33768;48.578;11.574;2023-12-20T07:35:56;3.80;;;2.80;;
48002;SDS011;33768;48.578;11.574;2023-12-20T07:39:00;4.10;;;2.70;;
48002;SDS011;33768;48.578;11.574;2023-12-20T07:42:05;3.53;;;2.90;;
48002;SDS011;33768;48.578;11.574;2023-12-20T07:45:09;4.37;;;2.60;;
48002;SDS011;33768;48.578;11.574;2023-12-20T07:48:14;3.20;;;2.40;;
48002;SDS011;33768;48.578;11.574;2023-12-20T07:51:18;11.97;;;8.20;;
48002;SDS011;33768;48.578;11.574;2023-12-20T07:54:24;4.90;;;3.20;;
48002;SDS011;33768;48.578;11.574;2023-12-20T07:57:29;2.90;;;2.57;;
48002;SDS011;33768;48.578;11.574;2023-12-20T08:00:34;2.67;;;2.23;;
48002;SDS011;33768;48.578;11.574;2023-12-20T08:03:39;2.53;;;2.20;;
48002;SDS011;33768;48.578;11.574;2023-12-20T08:06:43;3.97;;;2.30;;
48002;SDS011;33768;48.578;11.574;2023-12-20T08:09:47;5.43;;;2.10;;
48002;SDS011;33768;48.578;11.574;2023-12-20T08:12:51;2.87;;;2.00;;
48002;SDS011;33768;48.578;11.574;2023-12-20T08:15:56;2.40;;;2.00;;
48002;SDS011;33768;48.578;11.574;2023-12-20T08:19:00;4.03;;;2.10;;
48002;SDS011;33768;48.578;11.574;2023-12-20T08:22:05;2.60;;;2.00;;
48002;SDS011;33768;48.578;11.574;2023-12-20T08:25:09;2.60;;;2.00;;
48002;SDS011;33768;48.578;11.574;2023-12-20T08:28:13;2.67;;;2.00;;
48002;SDS011;33768;48.578;11.574;2023-12-20T08:31:17;3.00;;;2.00;;
48002;SDS011;33768;48.578;11.574;2023-12-20T08:34:22;1.97;;;1.73;;
48002;SDS011;33768;48.578;11.574;2023-12-20T08:37:31;2.90;;;2.50;;
48002;SDS011;33768;48.578;11.574;2023-12-20T08:40:35;3.93;;;1.90;;
48002;SDS011;33768;48.578;11.574;2023-12-20T08:43:39;1.97;;;1.70;;
48002;SDS011;33768;48.578;11.574;2023-12-20T08:46:46;3.67;;;2.07;;
48002;SDS011;33768;48.578;11.574;2023-12-20T08:49:52;2.30;;;1.83;;
48002;SDS011;33768;48.578;11.574;2023-12-20T08:53:01;2.20;;;1.80;;
48002;SDS011;33768;48.578;11.574;2023-12-20T08:56:05;4.93;;;3.07;;
48002;SDS011;33768;48.578;11.574;2023-12-20T08:59:09;1.73;;;1.60;;
48002;SDS011;33768;48.578;11.574;2023-12-20T09:02:13;2.20;;;2.00;;
48002;SDS011;33768;48.578;11.574;2023-12-20T09:05:17;2.17;;;1.77;;
48002;SDS011;33768;48.578;11.574;2023-12-20T09:08:22;1.97;;;1.77;;
48002;SDS011;33768;48.578;11.574;2023-12-20T09:11:26;2.60;;;2.40;;
48002;SDS011;33768;48.578;11.574;2023-12-20T09:14:30;2.77;;;2.40;;
48002;SDS011;33768;48.578;11.574;2023-12-20T09:17:34;3.07;;;2.20;;
48002;SDS011;33768;48.578;11.574;2023-12-20T09:20:39;3.27;;;2.40;;
48002;SDS011;33768;48.578;11.574;2023-12-20T09:23:43;3.60;;;2.60;;
48002;SDS011;33768;48.578;11.574;2023-12-20T09:26:47;4.03;;;3.00;;
48002;SDS011;33768;48.578;11.574;2023-12-20T09:29:51;2.97;;;2.67;;
48002;SDS011;33768;48.578;11.574;2023-12-20T09:32:56;5.23;;;3.13;;
48002;SDS011;33768;48.578;11.574;2023-12-20T09:36:01;4.90;;;3.30;;
48002;SDS011;33768;48.578;11.574;2023-12-20T09:39:05;5.03;;;4.10;;
48002;SDS011;33768;48.578;11.574;2023-12-20T09:42:10;5.73;;;3.87;;
48002;SDS011;33768;48.578;11.574;2023-12-20T09:45:20;6.13;;;3.77;;
48002;SDS011;33768;48.578;11.574;2023-12-20T09:48:28;6.17;;;5.10;;
48002;SDS011;33768;48.578;11.574;2023-12-20T09:51:32;4.60;;;4.10;;
48002;SDS011;33768;48.578;11.574;2023-12-20T09:54:39;7.30;;;4.90;;
48002;SDS011;33768;48.578;11.574;2023-12-20T09:57:45;5.83;;;4.73;;
48002;SDS011;33768;48.578;11.574;2023-12-20T10:00:50;5.60;;;4.83;;
48002;SDS011;33768;48.578;11.574;2023-12-20T10:03:55;10.50;;;9.00;;
48002;SDS011;33768;48.578;11.574;2023-12-20T10:07:01;4.60;;;3.67;;
48002;SDS011;33768;48.578;11.574;2023-12-20T10:10:07;3.93;;;3.43;;
48002;SDS011;33768;48.578;11.574;2023-12-20T10:13:12;3.70;;;3.20;;
48002;SDS011;33768;48.578;11.574;2023-12-20T10:16:16;4.53;;;3.60;;
48002;SDS011;33768;48.578;11.574;2023-12-20T10:19:20;4.97;;;3.70;;
48002;SDS011;33768;48.578;11.574;2023-12-20T10:22:26;3.40;;;2.90;;
48002;SDS011;33768;48.578;11.574;2023-12-20T10:25:33;4.77;;;3.33;;
48002;SDS011;33768;48.578;11.574;2023-12-20T10:28:37;3.83;;;3.43;;
48002;SDS011;33768;48.578;11.574;2023-12-20T10:31:41;3.47;;;2.73;;
48002;SDS011;33768;48.578;11.574;2023-12-20T10:34:49;2.67;;;2.20;;
48002;SDS011;33768;48.578;11.574;2023-12-20T10:38:27;5.23;;;3.20;;
48002;SDS011;33768;48.578;11.574;2023-12-20T10:41:33;2.50;;;2.27;;
48002;SDS011;33768;48.578;11.574;2023-12-20T10:44:37;4.60;;;4.20;;
48002;SDS011;33768;48.578;11.574;2023-12-20T10:47:41;3.57;;;2.90;;
48002;SDS011;33768;48.578;11.574;2023-12-20T10:50:46;3.10;;;2.73;;
48002;SDS011;33768;48.578;11.574;2023-12-20T10:53:52;3.77;;;2.53;;
48002;SDS011;33768;48.578;11.574;2023-12-20T10:56:57;2.83;;;2.50;;
48002;SDS011;33768;48.578;11.574;2023-12-20T11:00:01;2.50;;;2.13;;
48002;SDS011;33768;48.578;11.574;2023-12-20T11:03:14;3.53;;;2.30;;
48002;SDS011;33768;48.578;11.574;2023-12-20T11:10:20;3.23;;;2.73;;
48002;SDS011;33768;48.578;11.574;2023-12-20T11:13:28;3.77;;;3.33;;
48002;SDS011;33768;48.578;11.574;2023-12-20T11:16:37;1.70;;;1.60;;
48002;SDS011;33768;48.578;11.574;2023-12-20T11:23:01;3.40;;;2.47;;
48002;SDS011;33768;48.578;11.574;2023-12-20T11:26:06;2.57;;;1.47;;
48002;SDS011;33768;48.578;11.574;2023-12-20T11:32:39;1.33;;;1.23;;
48002;SDS011;33768;48.578;11.574;2023-12-20T11:35:45;2.80;;;1.40;;
48002;SDS011;33768;48.578;11.574;2023-12-20T11:38:56;1.40;;;1.30;;
48002;SDS011;33768;48.578;11.574;2023-12-20T11:42:04;1.43;;;1.33;;
48002;SDS011;33768;48.578;11.574;2023-12-20T11:45:11;2.87;;;1.50;;
48002;SDS011;33768;48.578;11.574;2023-12-20T11:48:19;1.53;;;1.43;;
48002;SDS011;33768;48.578;11.574;2023-12-20T11:51:23;1.70;;;1.30;;
48002;SDS011;33768;48.578;11.574;2023-12-20T11:54:30;10.83;;;6.37;;
48002;SDS011;33768;48.578;11.574;2023-12-20T11:57:34;14.67;;;8.80;;
48002;SDS011;33768;48.578;11.574;2023-12-20T12:00:40;10.03;;;7.60;;
48002;SDS011;33768;48.578;11.574;2023-12-20T12:03:45;6.20;;;4.53;;
48002;SDS011;33768;48.578;11.574;2023-12-20T12:06:49;8.30;;;4.93;;
48002;SDS011;33768;48.578;11.574;2023-12-20T12:09:53;5.10;;;3.97;;
48002;SDS011;33768;48.578;11.574;2023-12-20T12:12:57;2.87;;;2.10;;
48002;SDS011;33768;48.578;11.574;2023-12-20T12:16:02;2.50;;;2.20;;
48002;SDS011;33768;48.578;11.574;2023-12-20T12:19:06;2.00;;;1.80;;
48002;SDS011;33768;48.578;11.574;2023-12-20T12:22:12;1.90;;;1.70;;
48002;SDS011;33768;48.578;11.574;2023-12-20T12:25:18;1.67;;;1.57;;
48002;SDS011;33768;48.578;11.574;2023-12-20T12:28:25;1.60;;;1.50;;
48002;SDS011;33768;48.578;11.574;2023-12-20T12:31:35;3.27;;;2.20;;
48002;SDS011;33768;48.578;11.574;2023-12-20T12:34:39;2.03;;;1.10;;
48002;SDS011;33768;48.578;11.574;2023-12-20T12:37:43;2.13;;;1.73;;
48002;SDS011;33768;48.578;11.574;2023-12-20T12:40:48;3.03;;;2.57;;
48002;SDS011;33768;48.578;11.574;2023-12-20T12:43:53;3.03;;;1.60;;
48002;SDS011;33768;48.578;11.574;2023-12-20T12:46:57;1.93;;;1.30;;
48002;SDS011;33768;48.578;11.574;2023-12-20T12:50:02;2.67;;;1.33;;
48002;SDS011;33768;48.578;11.574;2023-12-20T12:53:09;3.07;;;1.83;;
48002;SDS011;33768;48.578;11.574;2023-12-20T12:56:13;5.27;;;2.03;;
48002;SDS011;33768;48.578;11.574;2023-12-20T12:59:18;5.37;;;2.23;;
48002;SDS011;33768;48.578;11.574;2023-12-20T13:02:23;3.60;;;1.77;;
48002;SDS011;33768;48.578;11.574;2023-12-20T13:05:27;4.90;;;1.20;;
48002;SDS011;33768;48.578;11.574;2023-12-20T13:08:31;4.07;;;1.70;;
48002;SDS011;33768;48.578;11.574;2023-12-20T13:11:36;3.50;;;1.83;;
48002;SDS011;33768;48.578;11.574;2023-12-20T13:14:39;4.07;;;1.30;;
48002;SDS011;33768;48.578;11.574;2023-12-20T13:17:44;4.40;;;2.23;;
48002;SDS011;33768;48.578;11.574;2023-12-20T13:20:50;5.90;;;3.00;;
48002;SDS011;33768;48.578;11.574;2023-12-20T13:23:54;8.73;;;3.53;;
48002;SDS011;33768;48.578;11.574;2023-12-20T13:26:58;6.53;;;2.90;;
48002;SDS011;33768;48.578;11.574;2023-12-20T13:30:02;6.77;;;2.60;;
48002;SDS011;33768;48.578;11.574;2023-12-20T13:33:07;6.10;;;1.90;;
48002;SDS011;33768;48.578;11.574;2023-12-20T13:36:11;3.67;;;1.27;;
48002;SDS011;33768;48.578;11.574;2023-12-20T13:39:16;6.63;;;1.77;;
48002;SDS011;33768;48.578;11.574;2023-12-20T13:42:20;1.63;;;1.10;;
48002;SDS011;33768;48.578;11.574;2023-12-20T13:45:24;3.43;;;1.10;;
48002;SDS011;33768;48.578;11.574;2023-12-20T13:48:29;4.40;;;1.40;;
48002;SDS011;33768;48.578;11.574;2023-12-20T13:51:33;2.73;;;1.10;;
48002;SDS011;33768;48.578;11.574;2023-12-20T13:54:37;7.83;;;3.73;;
48002;SDS011;33768;48.578;11.574;2023-12-20T13:57:42;17.33;;;7.33;;
48002;SDS011;33768;48.578;11.574;2023-12-20T14:00:46;7.13;;;3.07;;
48002;SDS011;33768;48.578;11.574;2023-12-20T14:03:50;5.33;;;2.67;;
48002;SDS011;33768;48.578;11.574;2023-12-20T14:06:54;2.90;;;1.10;;
48002;SDS011;33768;48.578;11.574;2023-12-20T14:09:59;1.67;;;0.90;;
48002;SDS011;33768;48.578;11.574;2023-12-20T14:13:03;2.27;;;1.10;;
48002;SDS011;33768;48.578;11.574;2023-12-20T14:16:07;4.00;;;1.27;;
48002;SDS011;33768;48.578;11.574;2023-12-20T14:19:11;6.67;;;1.60;;
48002;SDS011;33768;48.578;11.574;2023-12-20T14:22:15;2.53;;;1.10;;
48002;SDS011;33768;48.578;11.574;2023-12-20T14:25:20;3.73;;;1.40;;
48002;SDS011;33768;48.578;11.574;2023-12-20T14:28:26;3.90;;;2.20;;
48002;SDS011;33768;48.578;11.574;2023-12-20T14:31:30;3.00;;;1.90;;
48002;SDS011;33768;48.578;11.574;2023-12-20T14:34:35;6.83;;;4.10;;
48002;SDS011;33768;48.578;11.574;2023-12-20T14:37:42;7.00;;;2.57;;
48002;SDS011;33768;48.578;11.574;2023-12-20T14:40:47;3.13;;;2.10;;
48002;SDS011;33768;48.578;11.574;2023-12-20T14:43:51;4.03;;;1.80;;
48002;SDS011;33768;48.578;11.574;2023-12-20T14:46:57;6.57;;;1.73;;
48002;SDS011;33768;48.578;11.574;2023-12-20T14:50:04;2.37;;;1.23;;
48002;SDS011;33768;48.578;11.574;2023-12-20T14:53:10;2.80;;;1.40;;
48002;SDS011;33768;48.578;11.574;2023-12-20T14:56:15;6.13;;;1.53;;
48002;SDS011;33768;48.578;11.574;2023-12-20T14:59:20;4.20;;;1.37;;
48002;SDS011;33768;48.578;11.574;2023-12-20T15:02:25;7.17;;;1.50;;
48002;SDS011;33768;48.578;11.574;2023-12-20T15:05:29;3.50;;;1.53;;
48002;SDS011;33768;48.578;11.574;2023-12-20T15:08:34;5.57;;;3.30;;
48002;SDS011;33768;48.578;11.574;2023-12-20T15:11:38;3.53;;;2.10;;
48002;SDS011;33768;48.578;11.574;2023-12-20T15:14:42;2.37;;;1.20;;
48002;SDS011;33768;48.578;11.574;2023-12-20T15:17:46;4.13;;;1.30;;
48002;SDS011;33768;48.578;11.574;2023-12-20T15:20:51;4.57;;;1.40;;
48002;SDS011;33768;48.578;11.574;2023-12-20T15:23:56;3.70;;;1.50;;
48002;SDS011;33768;48.578;11.574;2023-12-20T15:27:09;2.93;;;1.40;;
48002;SDS011;33768;48.578;11.574;2023-12-20T15:30:17;2.17;;;1.27;;
48002;SDS011;33768;48.578;11.574;2023-12-20T15:33:25;2.93;;;1.30;;
48002;SDS011;33768;48.578;11.574;2023-12-20T15:36:30;8.10;;;5.77;;
48002;SDS011;33768;48.578;11.574;2023-12-20T15:39:34;16.20;;;8.13;;
48002;SDS011;33768;48.578;11.574;2023-12-20T15:42:39;8.70;;;5.10;;
48002;SDS011;33768;48.578;11.574;2023-12-20T15:45:44;6.83;;;2.90;;
48002;SDS011;33768;48.578;11.574;2023-12-20T15:48:50;4.70;;;2.17;;
48002;SDS011;33768;48.578;11.574;2023-12-20T15:51:56;6.40;;;1.80;;
48002;SDS011;33768;48.578;11.574;2023-12-20T15:55:00;4.83;;;2.10;;
48002;SDS011;33768;48.578;11.574;2023-12-20T15:58:05;3.93;;;1.90;;
48002;SDS011;33768;48.578;11.574;2023-12-20T16:01:09;3.90;;;1.50;;
48002;SDS011;33768;48.578;11.574;2023-12-20T16:04:13;4.80;;;1.83;;
48002;SDS011;33768;48.578;11.574;2023-12-20T16:07:19;2.33;;;1.27;;
48002;SDS011;33768;48.578;11.574;2023-12-20T16:10:23;5.87;;;1.90;;
48002;SDS011;33768;48.578;11.574;2023-12-20T16:13:29;3.00;;;1.83;;
48002;SDS011;33768;48.578;11.574;2023-12-20T16:16:35;3.67;;;1.30;;
48002;SDS011;33768;48.578;11.574;2023-12-20T16:19:39;5.40;;;1.50;;
48002;SDS011;33768;48.578;11.574;2023-12-20T16:22:43;5.63;;;1.37;;
48002;SDS011;33768;48.578;11.574;2023-12-20T16:25:47;2.87;;;1.43;;
48002;SDS011;33768;48.578;11.574;2023-12-20T16:28:51;2.77;;;1.30;;
48002;SDS011;33768;48.578;11.574;2023-12-20T16:31:56;2.93;;;1.63;;
48002;SDS011;33768;48.578;11.574;2023-12-20T16:35:00;6.23;;;1.70;;
48002;SDS011;33768;48.578;11.574;2023-12-20T16:38:05;6.40;;;1.40;;
48002;SDS011;33768;48.578;11.574;2023-12-20T16:41:09;3.40;;;1.50;;
48002;SDS011;33768;48.578;11.574;2023-12-20T16:44:15;5.43;;;2.53;;
48002;SDS011;33768;48.578;11.574;2023-12-20T16:47:20;4.37;;;1.83;;
48002;SDS011;33768;48.578;11.574;2023-12-20T16:50:25;3.20;;;1.40;;
48002;SDS011;33768;48.578;11.574;2023-12-20T16:53:29;3.87;;;1.17;;
48002;SDS011;33768;48.578;11.574;2023-12-20T16:56:34;3.53;;;1.30;;
48002;SDS011;33768;48.578;11.574;2023-12-20T16:59:41;4.07;;;1.60;;
48002;SDS011;33768;48.578;11.574;2023-12-20T17:02:46;4.10;;;1.17;;
48002;SDS011;33768;48.578;11.574;2023-12-20T17:05:50;2.37;;;1.37;;
48002;SDS011;33768;48.578;11.574;2023-12-20T17:08:54;2.70;;;1.20;;
48002;SDS011;33768;48.578;11.574;2023-12-20T17:11:58;4.03;;;1.20;;
48002;SDS011;33768;48.578;11.574;2023-12-20T17:15:03;5.30;;;1.80;;
48002;SDS011;33768;48.578;11.574;2023-12-20T17:18:08;3.87;;;2.23;;
48002;SDS011;33768;48.578;11.574;2023-12-20T17:21:13;6.87;;;2.43;;
48002;SDS011;33768;48.578;11.574;2023-12-20T17:24:17;6.00;;;3.13;;
48002;SDS011;33768;48.578;11.574;2023-12-20T17:27:21;15.73;;;8.63;;
48002;SDS011;33768;48.578;11.574;2023-12-20T17:30:25;12.57;;;5.37;;
48002;SDS011;33768;48.578;11.574;2023-12-20T17:33:30;5.27;;;2.30;;
48002;SDS011;33768;48.578;11.574;2023-12-20T17:36:34;6.27;;;2.80;;
48002;SDS011;33768;48.578;11.574;2023-12-20T17:39:38;3.30;;;1.60;;
48002;SDS011;33768;48.578;11.574;2023-12-20T17:42:43;4.13;;;2.47;;
48002;SDS011;33768;48.578;11.574;2023-12-20T17:45:48;3.03;;;1.73;;
48002;SDS011;33768;48.578;11.574;2023-12-20T17:48:53;4.33;;;1.77;;
48002;SDS011;33768;48.578;11.574;2023-12-20T17:51:57;6.93;;;1.60;;
48002;SDS011;33768;48.578;11.574;2023-12-20T17:55:02;1.93;;;1.73;;
48002;SDS011;33768;48.578;11.574;2023-12-20T17:58:08;2.40;;;1.60;;
48002;SDS011;33768;48.578;11.574;2023-12-20T18:01:12;3.53;;;1.10;;
48002;SDS011;33768;48.578;11.574;2023-12-20T18:04:19;2.87;;;1.20;;
48002;SDS011;33768;48.578;11.574;2023-12-20T18:07:24;3.40;;;1.67;;
48002;SDS011;33768;48.578;11.574;2023-12-20T18:10:28;3.67;;;1.73;;
48002;SDS011;33768;48.578;11.574;2023-12-20T18:13:33;6.77;;;1.43;;
48002;SDS011;33768;48.578;11.574;2023-12-20T18:16:37;4.57;;;1.30;;
48002;SDS011;33768;48.578;11.574;2023-12-20T18:19:42;12.30;;;5.40;;
48002;SDS011;33768;48.578;11.574;2023-12-20T18:22:46;29.00;;;15.73;;
48002;SDS011;33768;48.578;11.574;2023-12-20T18:25:50;22.63;;;12.17;;